PADK/ADK METAR and TAF weather

Enter ICAO airport designator
Station Type Date Time Source
PADK METAR 2019/12/07 00:03 UTC NOAA

PADK 070003Z AUTO 27008KT 10SM BKN022 03/00 A2897 RMK AO2


Station Type Date Time Source
PADK Decoded METAR 2019/12/07 00:03 UTC NOAA

Adak Island, Adak Airport, AK, United States (PADK) 51-52-40N 176-38-45W 4M
Dec 06, 2019 - 07:03 PM EST / 2019.12.07 0003 UTC
Wind: from the W (270 degrees) at 9 MPH (8 KT):0
Visibility: 10 mile(s):0
Sky conditions: mostly cloudy
Temperature: 37 F (3 C)
Dew Point: 32 F (0 C)
Relative Humidity: 80%
Pressure (altimeter): 28.97 in. Hg (981 hPa)
ob: PADK 070003Z AUTO 27008KT 10SM BKN022 03/00 A2897 RMK AO2
cycle: 0

Station Type Date Time Source
PADK TAF 2007/04/07 12:54 UTC NOAA

TAF PADK 070404 33010G15KT 9999 FEW025 BKN030 OVC050 QNH2900INS T03/00Z TM01/18Z COR 1205 LAST NO
AMDS AFT 0712;

Example: see airport list